Time;durP1;ratioP1;P1;durP2;ratioP2;P2;SDS_P1;SDS_P2;PMS_P1;PMS_P2;Temp;Humidity;BMP_temperature;BMP_pressure;BME280_temperature;BME280_humidity;BME280_pressure;Samples;Min_cycle;Max_cycle;Signal;HPM_P1;HPM_P2
2022/09/05 00:02:02;;;;;;;7.70;3.30;;;;;;;16.09;75.73;101752.53;5011551;28;20041;-85
2022/09/05 00:05:00;;;;;;;8.30;3.80;;;;;;;15.98;76.34;101737.44;4994538;28;20034;-86
2022/09/05 00:07:26;;;;;;;7.53;3.95;;;;;;;16.02;77.12;101743.91;5012278;28;20109;-84
2022/09/05 00:10:13;;;;;;;8.07;3.67;;;;;;;15.99;76.69;101733.63;5011095;28;20610;-85
2022/09/05 00:12:40;;;;;;;8.40;3.65;;;;;;;15.93;78.10;101742.81;5012043;28;20485;-85
2022/09/05 00:15:16;;;;;;;9.60;3.60;;;;;;;15.93;77.80;101746.34;5011869;28;20036;-85
2022/09/05 00:18:08;;;;;;;6.57;3.72;;;;;;;15.89;76.96;101743.38;5012274;28;20034;-86
2022/09/05 00:21:16;;;;;;;8.88;3.30;;;;;;;15.84;76.93;101734.44;5011731;28;20354;-85
2022/09/05 00:23:51;;;;;;;8.50;3.95;;;;;;;15.79;77.44;101739.84;5011727;28;20509;-85
2022/09/05 00:26:24;;;;;;;5.70;3.90;;;;;;;15.72;79.23;101745.50;5011819;28;20034;-85
2022/09/05 00:29:16;;;;;;;8.10;4.23;;;;;;;15.70;77.98;101745.00;5011479;28;20293;-85
2022/09/05 00:31:45;;;;;;;8.90;3.60;;;;;;;15.65;78.83;101750.38;5011165;28;20021;-85
2022/09/05 00:34:44;;;;;;;6.88;3.92;;;;;;;15.62;77.66;101742.81;5011624;28;20449;-85
2022/09/05 00:37:10;;;;;;;8.82;3.80;;;;;;;15.57;79.09;101741.72;4993900;28;20037;-85
2022/09/05 00:39:42;;;;;;;5.50;3.63;;;;;;;15.53;78.37;101739.84;5011565;28;20028;-85
2022/09/05 00:42:15;;;;;;;5.90;3.75;;;;;;;15.50;78.94;101743.06;5011219;28;20385;-85
2022/09/05 00:44:50;;;;;;;8.43;3.88;;;;;;;15.42;79.03;101734.44;5011355;28;20665;-85
2022/09/05 00:47:40;;;;;;;8.73;4.30;;;;;;;15.40;78.38;101735.75;5011445;28;20168;-85
2022/09/05 00:50:12;;;;;;;10.15;3.85;;;;;;;15.42;79.92;101747.13;5010351;28;20029;-85
2022/09/05 00:52:56;;;;;;;5.70;4.00;;;;;;;15.36;78.80;101737.38;5011393;28;20041;-85
2022/09/05 00:55:33;;;;;;;9.33;4.40;;;;;;;15.36;80.51;101732.78;5011326;28;20280;-85
2022/09/05 00:58:13;;;;;;;8.35;4.20;;;;;;;15.35;79.80;101733.88;5011167;28;20026;-85
2022/09/05 01:00:53;;;;;;;8.52;4.30;;;;;;;15.28;80.35;101728.75;5010650;28;20113;-85
2022/09/05 01:03:26;;;;;;;6.63;4.57;;;;;;;15.26;80.65;101735.47;5010616;28;20387;-85
2022/09/05 01:06:04;;;;;;;12.35;4.95;;;;;;;15.21;80.57;101738.19;5010731;28;20038;-85
2022/09/05 01:09:02;;;;;;;7.00;3.97;;;;;;;15.20;80.47;101733.84;5011258;28;20485;-85
2022/09/05 01:12:03;;;;;;;8.15;4.70;;;;;;;15.13;80.76;101732.22;5010542;28;20030;-85
2022/09/05 01:14:43;;;;;;;8.23;4.63;;;;;;;15.11;81.83;101728.16;5011196;28;20030;-85
2022/09/05 01:17:19;;;;;;;6.95;4.40;;;;;;;15.02;80.64;101721.66;5010493;28;20089;-85
2022/09/05 01:20:02;;;;;;;6.67;4.40;;;;;;;15.06;80.46;101733.53;5010772;28;20496;-85
2022/09/05 01:22:52;;;;;;;8.00;4.70;;;;;;;15.05;80.62;101726.53;5009889;28;20648;-85
2022/09/05 01:25:20;;;;;;;8.98;4.00;;;;;;;15.02;81.68;101735.16;5010820;28;20045;-85
2022/09/05 01:27:55;;;;;;;8.82;4.85;;;;;;;14.93;81.24;101727.59;5010627;28;20057;-85
2022/09/05 01:30:22;;;;;;;6.70;4.20;;;;;;;14.96;81.40;101732.44;5010184;28;20034;-85
2022/09/05 01:33:10;;;;;;;9.63;4.70;;;;;;;14.85;81.95;101722.69;5010101;28;20141;-85
2022/09/05 01:35:42;;;;;;;8.00;4.80;;;;;;;14.86;81.56;101739.69;5010806;28;20034;-85
2022/09/05 01:38:55;;;;;;;8.32;4.60;;;;;;;14.78;81.05;101730.22;5010190;28;20040;-85
2022/09/05 01:41:42;;;;;;;9.68;4.50;;;;;;;14.76;81.03;101726.97;4949703;28;20076;-85
2022/09/05 01:44:25;;;;;;;8.05;4.85;;;;;;;14.76;81.36;101727.78;4992466;28;20040;-85
2022/09/05 01:47:06;;;;;;;6.40;4.60;;;;;;;14.76;81.32;101726.97;5010311;28;20026;-85
2022/09/05 01:49:42;;;;;;;8.23;4.60;;;;;;;14.72;82.06;101721.28;5010579;28;20705;-85
2022/09/05 01:52:43;;;;;;;13.75;5.15;;;;;;;14.66;82.06;101716.94;5009951;28;20030;-85
2022/09/05 01:55:27;;;;;;;10.90;4.75;;;;;;;14.70;82.47;101723.44;5010169;28;20018;-85
2022/09/05 01:58:25;;;;;;;9.75;4.88;;;;;;;14.59;81.97;101719.88;5010018;28;20581;-85
2022/09/05 02:01:16;;;;;;;10.85;5.10;;;;;;;14.63;82.00;101723.63;5009682;28;20109;-85
2022/09/05 02:03:46;;;;;;;10.70;5.28;;;;;;;14.61;83.30;101727.69;5009946;28;20033;-85
2022/09/05 02:06:33;;;;;;;9.18;5.13;;;;;;;14.61;82.38;101725.78;5010292;28;20080;-85
2022/09/05 02:09:15;;;;;;;7.22;5.22;;;;;;;14.57;82.24;101723.88;5010017;28;20030;-85
2022/09/05 02:12:02;;;;;;;8.98;5.43;;;;;;;14.55;82.37;101716.06;5009719;28;20366;-85
2022/09/05 02:14:44;;;;;;;10.27;5.20;;;;;;;14.57;82.33;101727.41;5010322;28;20416;-85
2022/09/05 02:17:31;;;;;;;7.73;6.10;;;;;;;14.57;82.73;101723.88;5010032;28;20292;-85
2022/09/05 02:20:07;;;;;;;8.68;6.15;;;;;;;14.49;83.21;101715.25;5009256;28;20037;-85
2022/09/05 02:23:09;;;;;;;9.85;6.10;;;;;;;14.43;82.27;101707.38;5010181;28;20034;-85
2022/09/05 02:26:02;;;;;;;9.68;7.00;;;;;;;14.46;83.23;101720.31;5009855;28;20033;-85
2022/09/05 02:28:52;;;;;;;8.10;6.07;;;;;;;14.47;82.70;101727.34;5009890;28;20030;-85
2022/09/05 02:31:39;;;;;;;11.65;7.00;;;;;;;14.42;83.30;101725.44;5009462;28;20049;-85
2022/09/05 02:34:14;;;;;;;8.40;6.38;;;;;;;14.38;84.23;101735.13;5012433;28;20026;-85
2022/09/05 02:36:44;;;;;;;11.30;6.60;;;;;;;14.39;83.86;101736.75;5013657;28;20125;-85
2022/09/05 02:39:28;;;;;;;10.82;6.18;;;;;;;14.28;83.89;101727.00;5013768;28;20058;-85
2022/09/05 02:41:59;;;;;;;8.87;6.60;;;;;;;14.27;86.11;101736.94;5013049;28;20041;-85
2022/09/05 02:44:50;;;;;;;11.87;6.57;;;;;;;14.21;84.33;101738.00;5013947;28;20858;-85
2022/09/05 02:47:30;;;;;;;9.65;6.05;;;;;;;14.17;84.92;101732.28;4995905;28;20026;-85
2022/09/05 02:50:21;;;;;;;11.30;7.22;;;;;;;14.15;84.52;101729.03;4994348;28;20068;-85
2022/09/05 02:52:48;;;;;;;9.85;7.03;;;;;;;14.15;85.16;101733.63;5012744;28;20113;-85
2022/09/05 02:56:03;;;;;;;13.85;6.95;;;;;;;14.11;83.93;101732.53;5013635;28;20033;-85
2022/09/05 02:58:48;;;;;;;10.02;6.40;;;;;;;14.07;85.17;101738.44;4914124;29;20036;-85
2022/09/05 03:01:49;;;;;;;9.30;6.57;;;;;;;14.02;84.16;101741.09;4914146;29;20088;-85
2022/09/05 03:04:24;;;;;;;13.90;6.45;;;;;;;14.04;85.42;101733.59;5005254;28;20556;-85
2022/09/05 03:07:13;;;;;;;10.27;6.47;;;;;;;14.03;85.70;101736.53;5012990;28;20036;-85
2022/09/05 03:09:55;;;;;;;12.13;7.80;;;;;;;13.93;85.12;101727.31;5013122;28;20036;-85
2022/09/05 03:12:49;;;;;;;12.57;6.67;;;;;;;13.91;nan;101729.44;4995203;28;20292;-85
2022/09/05 03:15:58;;;;;;;10.52;6.75;;;;;;;13.92;85.05;101732.94;5013410;28;20030;-85
2022/09/05 03:18:41;;;;;;;10.50;6.70;;;;;;;13.92;86.30;101735.63;5013002;28;20028;-85
2022/09/05 03:21:24;;;;;;;8.88;7.07;;;;;;;13.84;86.59;101728.84;5012700;28;20033;-85
2022/09/05 03:24:12;;;;;;;12.23;6.95;;;;;;;13.78;86.69;101730.69;5012685;28;20032;-85
2022/09/05 03:27:08;;;;;;;12.63;6.82;;;;;;;13.80;85.62;101737.69;5012925;28;20125;-86
2022/09/05 03:29:52;;;;;;;10.18;7.00;;;;;;;13.77;85.79;101739.03;5012869;28;20077;-85
2022/09/05 03:35:12;;;;;;;9.13;7.07;;;;;;;13.71;86.55;101732.78;5000902;26;20061;-85
2022/09/05 03:37:49;;;;;;;12.23;7.13;;;;;;;13.73;86.90;101737.91;4995330;28;20077;-85
2022/09/05 03:40:38;;;;;;;9.93;6.90;;;;;;;13.67;86.60;101731.69;4994762;28;20277;-85
2022/09/05 03:43:29;;;;;;;10.90;7.47;;;;;;;13.62;86.34;101724.34;4973627;28;20034;-85
2022/09/05 03:46:07;;;;;;;10.57;7.55;;;;;;;13.65;88.38;101733.81;5011452;28;20034;-85
2022/09/05 03:49:06;;;;;;;9.65;7.35;;;;;;;13.62;86.77;101735.13;5012643;28;20040;-85
2022/09/05 03:51:52;;;;;;;8.40;6.80;;;;;;;13.61;87.96;101735.41;5012002;28;20142;-86
2022/09/05 03:54:59;;;;;;;9.48;7.22;;;;;;;13.57;88.09;101739.66;5012798;28;20105;-85
2022/09/05 03:58:02;;;;;;;11.57;7.05;;;;;;;13.50;87.28;101736.38;4995242;28;20391;-85
2022/09/05 04:00:32;;;;;;;9.52;7.03;;;;;;;13.46;87.85;101728.81;5011914;28;20113;-85
2022/09/05 04:03:00;;;;;;;12.20;7.72;;;;;;;13.45;89.49;101737.94;5012203;28;20496;-85
2022/09/05 04:05:33;;;;;;;10.00;7.70;;;;;;;13.39;88.91;101733.53;5012190;28;20418;-85
2022/09/05 04:08:06;;;;;;;12.23;7.47;;;;;;;13.37;88.61;101727.59;5012095;28;20363;-85
2022/09/05 04:10:41;;;;;;;11.82;7.32;;;;;;;13.39;88.93;101738.94;5011583;28;20037;-85
2022/09/05 04:13:17;;;;;;;11.90;7.90;;;;;;;13.35;89.67;101743.19;5011953;28;20026;-85
2022/09/05 04:15:47;;;;;;;12.05;8.30;;;;;;;13.23;89.82;101729.91;5012137;28;20025;-85
2022/09/05 04:18:18;;;;;;;10.38;7.53;;;;;;;13.28;90.26;101746.09;4994472;28;20090;-85
2022/09/05 04:20:50;;;;;;;12.90;7.38;;;;;;;13.30;89.97;101743.97;5011471;28;20026;-86
2022/09/05 04:24:07;;;;;;;10.90;7.97;;;;;;;13.27;90.04;101746.34;5012079;28;20073;-85
2022/09/05 04:27:09;;;;;;;11.13;7.38;;;;;;;13.22;89.42;101754.38;4967851;28;20114;-85
2022/09/05 04:29:53;;;;;;;12.45;8.02;;;;;;;13.18;89.95;101741.41;5011893;28;20037;-85
2022/09/05 04:32:34;;;;;;;9.53;7.50;;;;;;;13.14;89.93;101736.78;5011221;28;20477;-85
2022/09/05 04:35:20;;;;;;;11.20;7.70;;;;;;;13.18;89.75;101743.31;5011630;28;20265;-85
2022/09/05 04:37:49;;;;;;;11.07;8.00;;;;;;;13.17;90.14;101745.16;5011538;28;20037;-85
2022/09/05 04:40:32;;;;;;;11.55;8.30;;;;;;;13.14;89.51;101743.00;5011196;28;20045;-85
2022/09/05 04:43:02;;;;;;;11.93;7.97;;;;;;;13.07;90.77;101750.44;5011198;28;20465;-85
2022/09/05 04:45:35;;;;;;;10.13;8.32;;;;;;;13.05;90.41;101747.19;5011559;28;20120;-85
2022/09/05 04:48:04;;;;;;;12.27;7.80;;;;;;;13.00;90.98;101742.56;5011033;28;20025;-85
2022/09/05 04:50:32;;;;;;;15.90;8.30;;;;;;;12.96;90.93;101741.44;5011107;28;20018;-85
2022/09/05 04:53:35;;;;;;;11.77;8.05;;;;;;;12.98;91.57;101750.06;5011164;28;20037;-85
2022/09/05 04:56:08;;;;;;;10.95;7.65;;;;;;;12.97;91.18;101753.00;4994871;28;20048;-85
2022/09/05 04:58:42;;;;;;;11.87;8.27;;;;;;;12.92;92.29;101742.19;5011614;28;20076;-85
2022/09/05 05:01:14;;;;;;;10.80;8.27;;;;;;;12.91;92.06;101744.06;5010877;28;20277;-85
2022/09/05 05:03:41;;;;;;;12.20;8.15;;;;;;;12.85;91.58;101739.72;4993331;28;20665;-85
2022/09/05 05:06:25;;;;;;;12.27;7.90;;;;;;;12.94;90.68;101758.91;5011111;28;20537;-85
2022/09/05 05:09:01;;;;;;;10.50;7.63;;;;;;;12.91;91.47;101754.03;5010546;28;20030;-85
2022/09/05 05:11:35;;;;;;;14.38;8.38;;;;;;;13.02;91.99;101763.81;5010342;28;20069;-85
2022/09/05 05:14:07;;;;;;;10.75;8.10;;;;;;;13.07;91.39;101769.28;4992873;28;20072;-85
2022/09/05 05:16:40;;;;;;;14.00;8.05;;;;;;;13.07;91.83;101761.22;4993540;28;20477;-85
2022/09/05 05:19:12;;;;;;;12.80;7.85;;;;;;;13.09;92.07;101764.47;5010704;28;20486;-85
2022/09/05 05:27:06;;;;;;;15.07;8.93;;;;;;;13.18;91.90;101760.25;5529670;23;20358;-85
2022/09/05 05:29:37;;;;;;;13.65;8.60;;;;;;;13.21;92.00;101776.94;5010744;28;20026;-85
2022/09/05 05:32:04;;;;;;;12.60;8.52;;;;;;;13.22;91.96;101775.88;5010043;28;20367;-85
2022/09/05 05:34:36;;;;;;;13.32;8.85;;;;;;;13.18;91.84;101768.31;5010898;28;20112;-85
2022/09/05 05:37:40;;;;;;;14.10;9.13;;;;;;;13.27;91.90;101770.56;4992568;28;20104;-85
2022/09/05 05:40:15;;;;;;;13.95;8.63;;;;;;;13.32;90.93;101762.56;5010144;28;20033;-86
2022/09/05 05:42:46;;;;;;;13.02;8.70;;;;;;;13.37;91.09;101767.19;5010557;28;20076;-86
2022/09/05 05:45:24;;;;;;;11.02;8.43;;;;;;;13.44;90.56;101768.63;5010501;28;20030;-85
2022/09/05 05:48:00;;;;;;;13.57;9.23;;;;;;;13.50;90.67;101772.19;5010040;28;20022;-85
2022/09/05 05:50:28;;;;;;;11.50;8.40;;;;;;;13.56;90.51;101770.34;5009939;28;20036;-86
2022/09/05 05:53:11;;;;;;;10.37;8.83;;;;;;;13.58;90.65;101762.81;5010141;28;20285;-85
2022/09/05 05:55:55;;;;;;;15.25;9.50;;;;;;;13.64;91.46;101780.66;5010585;28;20038;-85
2022/09/05 05:58:26;;;;;;;14.98;9.63;;;;;;;13.66;90.81;101781.22;5010332;28;20045;-86
2022/09/05 06:01:24;;;;;;;13.15;9.00;;;;;;;13.70;89.83;101781.53;5009553;28;20038;-86
2022/09/05 06:04:20;;;;;;;17.63;10.07;;;;;;;13.80;90.01;101778.91;4924539;28;20041;-86
2022/09/05 06:07:02;;;;;;;15.05;9.10;;;;;;;13.91;89.92;101779.81;5010482;28;20045;-85
2022/09/05 06:09:49;;;;;;;15.27;9.80;;;;;;;13.98;90.24;101788.50;5009796;28;20048;-85
2022/09/05 06:12:37;;;;;;;14.38;9.02;;;;;;;14.09;90.27;101784.00;4992237;28;20118;-86
2022/09/05 06:15:27;;;;;;;15.52;9.88;;;;;;;14.23;90.18;101789.78;5010038;28;20389;-85
2022/09/05 06:18:17;;;;;;;12.60;10.07;;;;;;;14.37;90.92;101790.94;5009650;28;20508;-86
2022/09/05 06:21:26;;;;;;;17.23;10.73;;;;;;;14.53;90.41;101791.81;5009566;28;20277;-86
2022/09/05 06:24:23;;;;;;;14.57;10.15;;;;;;;14.79;90.52;101794.69;5009530;28;20030;-85
2022/09/05 06:27:00;;;;;;;13.23;9.63;;;;;;;14.93;88.96;101800.44;5009789;28;20033;-85
2022/09/05 06:29:54;;;;;;;15.57;10.27;;;;;;;15.12;88.62;101800.78;4992303;28;20125;-86
2022/09/05 06:32:34;;;;;;;13.20;9.98;;;;;;;15.33;88.11;101806.22;4991844;28;20053;-86
2022/09/05 06:35:26;;;;;;;14.43;10.55;;;;;;;15.53;87.06;101801.97;5009651;28;20030;-85
2022/09/05 06:38:10;;;;;;;13.95;10.05;;;;;;;15.73;86.87;101803.88;5009890;28;20397;-86
2022/09/05 06:41:00;;;;;;;15.30;9.98;;;;;;;15.95;85.76;101806.34;5009127;28;20036;-86
2022/09/05 06:43:58;;;;;;;12.52;9.32;;;;;;;16.12;85.12;101806.06;5010093;28;20164;-86
2022/09/05 06:46:34;;;;;;;13.83;9.63;;;;;;;16.38;84.15;101811.47;5009840;28;20483;-86
2022/09/05 06:49:20;;;;;;;15.60;9.87;;;;;;;16.53;83.32;101799.78;5009801;28;20639;-86
2022/09/05 06:52:23;;;;;;;16.55;9.40;;;;;;;16.79;82.92;101805.94;4991705;28;20040;-86
2022/09/05 06:54:59;;;;;;;13.65;9.68;;;;;;;17.05;81.81;101799.66;5009398;28;20044;-86
2022/09/05 06:57:55;;;;;;;18.27;9.93;;;;;;;17.28;80.87;101802.75;5010095;28;20022;-86
2022/09/05 07:00:44;;;;;;;12.45;9.30;;;;;;;17.46;79.06;101795.91;5008992;28;20033;-86
2022/09/05 07:03:29;;;;;;;11.50;9.15;;;;;;;17.74;78.53;101804.34;5009648;28;20460;-86
2022/09/05 07:06:09;;;;;;;14.05;9.15;;;;;;;17.88;78.26;101793.69;5008978;28;20141;-86
2022/09/05 07:08:44;;;;;;;13.02;8.70;;;;;;;18.05;76.18;101818.53;5009622;28;20466;-86
2022/09/05 07:11:22;;;;;;;10.77;8.68;;;;;;;18.26;74.11;101812.91;5008690;28;20114;-86
2022/09/05 07:14:06;;;;;;;11.17;8.60;;;;;;;18.36;73.92;101815.50;5009294;28;20026;-86
2022/09/05 07:16:40;;;;;;;15.83;8.80;;;;;;;18.41;73.66;101807.31;5009254;28;20281;-86
2022/09/05 07:19:13;;;;;;;13.30;8.35;;;;;;;18.54;72.33;101815.88;5009589;28;20106;-86
2022/09/05 07:21:50;;;;;;;13.55;8.30;;;;;;;18.65;72.66;101825.53;5012107;28;20088;-86
2022/09/05 07:24:21;;;;;;;17.88;8.50;;;;;;;18.70;71.82;101814.63;5013076;28;20034;-86
2022/09/05 07:26:48;;;;;;;11.45;7.93;;;;;;;18.86;70.97;101817.97;5013159;28;20038;-86
2022/09/05 07:29:19;;;;;;;17.08;8.43;;;;;;;18.92;71.11;101821.41;5013307;28;20060;-86
2022/09/05 07:31:49;;;;;;;12.85;8.13;;;;;;;19.04;69.94;101818.31;5012124;28;20068;-86
2022/09/05 07:34:30;;;;;;;13.38;8.65;;;;;;;19.07;70.44;101817.75;5012869;28;20392;-85
2022/09/05 07:37:22;;;;;;;14.63;7.88;;;;;;;19.16;70.66;101816.00;5012753;28;20109;-85
2022/09/05 07:39:58;;;;;;;13.03;7.90;;;;;;;19.27;69.51;101815.84;5012192;28;20022;-86
2022/09/05 07:43:03;;;;;;;13.27;7.50;;;;;;;19.39;69.85;101824.38;5012594;28;20273;-86
2022/09/05 07:45:29;;;;;;;10.63;6.82;;;;;;;19.46;68.96;101827.53;5010695;28;20038;-86
2022/09/05 07:48:10;;;;;;;16.05;6.25;;;;;;;19.61;68.12;101825.69;5012366;28;20041;-86
2022/09/05 07:50:49;;;;;;;14.57;5.53;;;;;;;19.72;66.62;101829.06;5012071;28;20026;-86
2022/09/05 07:53:16;;;;;;;9.35;4.97;;;;;;;19.75;66.34;101831.19;5012372;28;20073;-86
2022/09/05 07:55:42;;;;;;;12.10;4.60;;;;;;;19.90;65.24;101835.63;5012539;28;20026;-86
2022/09/05 07:58:12;;;;;;;8.52;4.80;;;;;;;19.99;65.18;101839.25;5012372;28;20033;-86
2022/09/05 08:00:38;;;;;;;7.83;4.90;;;;;;;20.16;64.63;101841.44;5011699;28;20024;-86
2022/09/05 08:03:13;;;;;;;8.73;4.50;;;;;;;20.27;65.05;101837.41;5012332;28;20276;-86
2022/09/05 08:06:04;;;;;;;9.38;4.40;;;;;;;20.52;64.98;101839.97;5012325;28;20026;-86
2022/09/05 08:08:37;;;;;;;6.28;4.28;;;;;;;20.68;63.59;101838.56;5013099;28;20033;-86
2022/09/05 08:11:08;;;;;;;10.63;4.60;;;;;;;20.73;62.63;101841.19;5011369;28;20476;-86
2022/09/05 08:13:41;;;;;;;9.63;4.32;;;;;;;20.89;63.66;101846.38;5012275;28;20037;-87
2022/09/05 08:16:10;;;;;;;10.02;4.15;;;;;;;21.01;62.75;101833.03;5011704;28;20473;-87
2022/09/05 08:18:55;;;;;;;5.90;3.73;;;;;;;21.25;62.30;101837.44;5012282;28;20034;-86
2022/09/05 08:21:40;;;;;;;8.27;4.20;;;;;;;21.39;61.08;101825.69;5011486;28;20327;-86
2022/09/05 08:24:11;;;;;;;8.07;4.32;;;;;;;21.62;60.38;101835.53;5011937;28;20022;-86
2022/09/05 08:26:45;;;;;;;10.73;4.22;;;;;;;21.84;59.48;101835.84;5011642;28;20493;-86
2022/09/05 08:29:26;;;;;;;7.43;3.67;;;;;;;22.02;58.63;101836.78;5011909;28;20030;-87
2022/09/05 08:32:00;;;;;;;9.77;4.00;;;;;;;22.17;56.82;101841.84;5010261;28;20030;-86
2022/09/05 08:34:34;;;;;;;9.82;3.58;;;;;;;22.36;56.31;101840.81;5011988;28;20029;-86
2022/09/05 08:37:01;;;;;;;10.25;3.60;;;;;;;22.50;55.11;101838.81;5011488;28;20049;-86
2022/09/05 08:39:28;;;;;;;4.18;3.08;;;;;;;22.62;54.37;101842.91;5011863;28;20026;-87
2022/09/05 08:42:21;;;;;;;6.00;2.90;;;;;;;22.84;54.76;101844.72;5010943;28;20049;-87
2022/09/05 08:45:50;;;;;;;8.30;3.30;;;;;;;22.90;55.36;101846.19;5011674;28;20037;-87
2022/09/05 08:48:38;;;;;;;7.40;3.37;;;;;;;22.97;55.23;101843.00;4912557;29;20280;-86
2022/09/05 08:51:16;;;;;;;6.68;3.00;;;;;;;22.98;54.09;101833.69;4911651;29;20064;-87
2022/09/05 08:53:47;;;;;;;6.93;3.20;;;;;;;23.16;52.84;101839.97;4997977;28;20539;-87
2022/09/05 08:56:22;;;;;;;5.53;3.08;;;;;;;23.26;53.13;101828.75;5011564;28;20029;-86
2022/09/05 08:59:03;;;;;;;5.78;2.65;;;;;;;23.57;51.18;101829.72;5010967;28;20056;-86
2022/09/05 09:02:02;;;;;;;10.32;2.90;;;;;;;23.75;51.57;101823.09;5011107;28;20037;-87
2022/09/05 09:04:41;;;;;;;6.15;2.53;;;;;;;24.03;49.82;101828.25;5011425;28;20728;-86
2022/09/05 09:07:29;;;;;;;10.05;2.78;;;;;;;24.18;50.75;101824.19;5011291;28;20032;-87
2022/09/05 09:10:18;;;;;;;10.48;2.60;;;;;;;24.32;50.66;101825.91;5009915;28;20064;-87
2022/09/05 09:13:10;;;;;;;8.37;2.80;;;;;;;24.40;49.06;101824.25;5011199;28;20036;-86
2022/09/05 09:15:39;;;;;;;5.90;2.70;;;;;;;24.37;48.63;101820.25;5011294;28;20273;-86
2022/09/05 09:18:15;;;;;;;3.95;2.50;;;;;;;24.50;49.32;101818.41;4993009;28;20032;-86
2022/09/05 09:20:52;;;;;;;3.90;2.58;;;;;;;24.63;47.90;101811.91;4993794;28;20034;-87
2022/09/05 09:23:40;;;;;;;11.52;2.70;;;;;;;24.78;47.26;101820.72;5010955;28;20034;-87
2022/09/05 09:26:14;;;;;;;2.90;2.42;;;;;;;24.77;47.41;101808.16;5010811;28;20049;-87
2022/09/05 09:29:02;;;;;;;5.47;2.30;;;;;;;24.99;45.05;101818.00;5010982;28;20034;-87
2022/09/05 09:31:36;;;;;;;3.53;2.60;;;;;;;25.03;44.32;101807.16;5010547;28;20022;-87
2022/09/05 09:34:19;;;;;;;6.47;2.83;;;;;;;25.24;45.30;101805.22;5010241;28;20049;-86
2022/09/05 09:37:19;;;;;;;3.67;2.28;;;;;;;25.39;45.80;101808.50;5010996;28;20033;-87
2022/09/05 09:39:56;;;;;;;3.03;1.70;;;;;;;25.42;43.22;101799.63;5010190;28;20041;-87
2022/09/05 09:42:35;;;;;;;4.80;2.20;;;;;;;25.44;42.06;101796.56;5010485;28;20347;-87
2022/09/05 09:45:24;;;;;;;3.53;2.17;;;;;;;25.46;43.28;101797.03;5010382;28;20169;-87
2022/09/05 09:48:08;;;;;;;6.55;2.20;;;;;;;25.69;42.58;101791.97;5010570;28;20018;-87
2022/09/05 09:50:39;;;;;;;2.83;1.88;;;;;;;25.77;41.70;101793.78;4992442;28;20041;-87
2022/09/05 09:53:37;;;;;;;4.90;2.13;;;;;;;25.89;42.72;101792.25;4992892;28;20030;-87
2022/09/05 09:56:21;;;;;;;9.07;2.15;;;;;;;26.13;41.24;101792.28;5010319;28;20057;-87
2022/09/05 09:58:56;;;;;;;4.90;1.98;;;;;;;26.26;40.16;101790.38;5011002;28;20079;-87
2022/09/05 10:01:52;;;;;;;64.38;4.68;;;;;;;26.42;39.22;101793.25;5010203;28;20072;-87
2022/09/05 10:05:03;;;;;;;5.45;2.15;;;;;;;26.51;38.57;101787.63;5011222;28;20033;-87
2022/09/05 10:07:34;;;;;;;3.83;1.53;;;;;;;26.68;38.51;101794.81;5010927;28;20109;-87
2022/09/05 10:10:50;;;;;;;2.67;1.80;;;;;;;26.76;39.39;101777.41;5009851;28;20617;-87
2022/09/05 10:13:25;;;;;;;4.85;1.90;;;;;;;26.91;37.81;101777.84;5010569;28;20366;-87
2022/09/05 10:16:25;;;;;;;4.32;1.73;;;;;;;27.00;37.04;101778.53;5010245;28;20038;-87
2022/09/05 10:19:28;;;;;;;3.78;1.70;;;;;;;27.14;37.73;101767.13;5010344;28;20026;-87
2022/09/05 10:22:12;;;;;;;3.00;1.80;;;;;;;27.32;37.12;101764.06;5009898;28;20049;-88
2022/09/05 10:24:53;;;;;;;4.80;1.73;;;;;;;27.41;35.58;101770.22;4992962;28;20397;-87
2022/09/05 10:27:22;;;;;;;3.90;1.73;;;;;;;27.49;35.12;101765.75;5010676;28;20030;-87
2022/09/05 10:30:19;;;;;;;5.63;1.63;;;;;;;27.56;35.40;101763.22;5009843;28;20042;-87
2022/09/05 10:33:29;;;;;;;6.10;1.85;;;;;;;27.66;35.78;101759.13;5009043;28;20087;-87
2022/09/05 10:36:21;;;;;;;4.60;1.83;;;;;;;27.74;34.90;101754.63;4963934;28;20089;-87
2022/09/05 10:39:19;;;;;;;8.07;1.87;;;;;;;27.80;35.47;101751.25;4976847;28;20368;-87
2022/09/05 10:41:54;;;;;;;3.83;1.80;;;;;;;27.74;34.61;101743.59;5009938;28;20029;-87
2022/09/05 10:44:29;;;;;;;4.30;1.95;;;;;;;27.93;34.32;101749.22;4992496;28;20117;-87
2022/09/05 10:47:25;;;;;;;5.18;1.73;;;;;;;28.14;35.43;101750.09;5009981;28;20030;-87
2022/09/05 10:50:18;;;;;;;4.88;1.67;;;;;;;28.22;34.00;101743.59;5008914;28;20516;-87
2022/09/05 10:53:18;;;;;;;6.40;1.60;;;;;;;28.41;34.55;101745.63;4995366;28;20052;-88
2022/09/05 10:55:53;;;;;;;5.93;1.80;;;;;;;28.63;32.33;101754.38;5013478;28;20049;-87
2022/09/05 10:58:58;;;;;;;2.72;1.60;;;;;;;28.56;32.30;101749.50;5013894;28;20022;-87
2022/09/05 11:01:40;;;;;;;2.30;1.63;;;;;;;28.66;32.13;101740.66;4995782;28;20481;-87
2022/09/05 11:04:43;;;;;;;3.67;1.80;;;;;;;28.84;32.41;101752.13;5013429;28;20036;-87
2022/09/05 11:07:40;;;;;;;5.03;1.40;;;;;;;28.89;31.87;101742.75;4995686;28;20284;-87
2022/09/05 11:10:30;;;;;;;1.77;1.52;;;;;;;28.93;32.32;101746.38;5012728;28;20398;-87
2022/09/05 11:13:01;;;;;;;2.75;1.80;;;;;;;29.02;31.24;101744.19;5000842;28;20440;-87
2022/09/05 11:16:05;;;;;;;2.08;1.63;;;;;;;29.09;32.04;101740.00;5013193;28;20038;-88
2022/09/05 11:19:05;;;;;;;3.45;1.70;;;;;;;29.23;32.07;101733.94;4993260;28;20041;-88
2022/09/05 11:22:02;;;;;;;2.40;1.50;;;;;;;29.37;31.95;101727.91;5012649;28;20034;-87
2022/09/05 11:25:00;;;;;;;2.08;1.88;;;;;;;29.40;30.87;101733.50;5009227;28;20038;-88
2022/09/05 11:27:38;;;;;;;4.30;1.80;;;;;;;29.40;30.85;101725.22;4959119;28;20050;-88
2022/09/05 11:30:07;;;;;;;3.58;1.52;;;;;;;29.40;31.40;101722.44;5012434;28;20109;-88
2022/09/05 11:33:10;;;;;;;3.63;1.60;;;;;;;29.56;31.87;101710.53;4995319;28;20431;-88
2022/09/05 11:35:51;;;;;;;3.00;1.77;;;;;;;29.65;30.86;101719.34;4995521;28;20292;-88
2022/09/05 11:38:31;;;;;;;3.80;1.63;;;;;;;29.73;30.98;101720.25;4996861;28;20025;-88
2022/09/05 11:41:44;;;;;;;2.83;1.80;;;;;;;29.82;30.74;101711.72;5012701;28;20054;-88
2022/09/05 11:44:27;;;;;;;3.88;2.10;;;;;;;29.94;30.82;101710.72;5013045;28;20517;-88
2022/09/05 11:47:28;;;;;;;4.63;1.90;;;;;;;30.04;30.42;101713.69;4995181;28;20041;-88
2022/09/05 11:50:03;;;;;;;3.65;1.50;;;;;;;30.01;30.28;101710.88;4995008;28;20041;-88
2022/09/05 11:52:51;;;;;;;2.72;1.70;;;;;;;30.19;29.58;101713.91;4997202;28;20033;-88
2022/09/05 11:55:24;;;;;;;5.43;2.00;;;;;;;30.29;30.05;101712.47;5014568;28;20378;-87
2022/09/05 11:58:08;;;;;;;5.60;2.13;;;;;;;30.40;30.30;101718.16;4994731;28;20034;-88
2022/09/05 12:00:43;;;;;;;1.70;1.60;;;;;;;30.43;29.12;101706.34;4994658;28;20038;-88
2022/09/05 12:03:30;;;;;;;5.27;2.00;;;;;;;30.42;29.27;101705.53;5013137;28;20284;-88
2022/09/05 12:06:16;;;;;;;2.00;1.60;;;;;;;30.34;29.14;101706.63;5011586;28;20044;-88
2022/09/05 12:08:57;;;;;;;3.50;2.08;;;;;;;30.47;29.60;101705.22;5012366;28;20030;-88
2022/09/05 12:12:00;;;;;;;3.50;1.80;;;;;;;30.59;29.33;101715.28;5012225;28;20041;-88
2022/09/05 12:14:42;;;;;;;4.90;1.70;;;;;;;30.60;29.07;101714.09;5012473;28;20034;-88
2022/09/05 12:17:20;;;;;;;3.83;1.83;;;;;;;30.71;28.84;101705.13;5012195;28;20045;-88
2022/09/05 12:19:57;;;;;;;6.53;1.90;;;;;;;30.84;28.62;101691.88;5011732;28;20034;-88
2022/09/05 12:22:33;;;;;;;3.58;1.80;;;;;;;30.87;28.93;101691.91;5012584;28;20141;-88
2022/09/05 12:25:10;;;;;;;3.25;2.00;;;;;;;30.92;29.00;101693.56;5011942;28;20084;-88
2022/09/05 12:27:38;;;;;;;4.80;1.57;;;;;;;30.75;28.84;101695.72;5012493;28;20092;-88
2022/09/05 12:30:06;;;;;;;2.87;1.97;;;;;;;30.82;28.89;101697.78;5011228;28;20292;-88
2022/09/05 12:32:32;;;;;;;3.15;1.70;;;;;;;31.00;29.38;101688.88;5011773;28;20762;-88
2022/09/05 12:34:59;;;;;;;2.38;1.95;;;;;;;31.26;29.01;101674.94;4994097;28;20044;-88
2022/09/05 12:37:33;;;;;;;2.35;1.80;;;;;;;31.52;28.05;101691.78;5012237;28;20022;-88
2022/09/05 12:40:10;;;;;;;4.15;2.00;;;;;;;31.70;27.68;101683.63;5011782;28;20366;-88
2022/09/05 12:42:44;;;;;;;1.98;1.77;;;;;;;31.66;27.72;101677.25;5011998;28;20434;-88